createdAt,value
2022-12-11T00:00:01.993Z,22.10
2022-12-11T00:02:32.538Z,28.70
2022-12-11T00:05:00.326Z,25.30
2022-12-11T00:07:28.114Z,28.80
2022-12-11T00:09:56.041Z,31.20
2022-12-11T00:12:23.835Z,22.80
2022-12-11T00:14:51.606Z,17.90
2022-12-11T00:17:19.338Z,26.20
2022-12-11T00:19:49.633Z,22.00
2022-12-11T00:22:17.615Z,17.90
2022-12-11T00:24:45.307Z,15.70
2022-12-11T00:27:13.135Z,21.80
2022-12-11T00:29:40.937Z,17.00
2022-12-11T00:32:09.040Z,17.50
2022-12-11T00:34:36.885Z,20.90
2022-12-11T00:37:04.728Z,16.10
2022-12-11T00:39:32.438Z,17.50
2022-12-11T00:42:00.120Z,16.10
2022-12-11T00:44:27.985Z,17.30
2022-12-11T00:46:55.668Z,18.00
2022-12-11T00:49:23.651Z,16.00
2022-12-11T00:51:51.431Z,19.00
2022-12-11T00:54:32.482Z,16.10
2022-12-11T00:57:00.187Z,18.30
2022-12-11T00:59:28.508Z,16.10
2022-12-11T01:01:56.619Z,18.30
2022-12-11T01:04:24.628Z,16.70
2022-12-11T01:06:52.283Z,17.20
2022-12-11T01:09:43.035Z,18.80
2022-12-11T01:12:10.769Z,19.50
2022-12-11T01:14:38.482Z,15.20
2022-12-11T01:17:06.205Z,16.10
2022-12-11T01:19:33.915Z,18.80
2022-12-11T01:22:01.682Z,18.40
2022-12-11T01:24:29.394Z,20.70
2022-12-11T01:26:57.132Z,24.30
2022-12-11T01:29:24.807Z,17.30
2022-12-11T01:31:58.746Z,18.50
2022-12-11T01:34:33.497Z,16.10
2022-12-11T01:37:07.759Z,16.30
2022-12-11T01:39:39.517Z,14.90
2022-12-11T01:42:10.576Z,17.00
2022-12-11T01:44:38.258Z,17.70
2022-12-11T01:47:05.863Z,17.10
2022-12-11T01:49:33.742Z,18.00
2022-12-11T01:52:03.614Z,17.80
2022-12-11T01:54:31.575Z,15.60
2022-12-11T01:57:06.990Z,16.50
2022-12-11T01:59:37.374Z,15.60
2022-12-11T02:02:08.926Z,14.10
2022-12-11T02:04:38.134Z,18.70
2022-12-11T02:07:06.243Z,15.10
2022-12-11T02:09:35.482Z,17.60
2022-12-11T02:12:12.425Z,17.40
2022-12-11T02:15:13.329Z,18.60
2022-12-11T02:17:44.273Z,14.40
2022-12-11T02:20:30.575Z,16.40
2022-12-11T02:22:58.284Z,14.20
2022-12-11T02:25:30.611Z,15.70
2022-12-11T02:28:09.761Z,16.80
2022-12-11T02:30:39.279Z,16.40
2022-12-11T02:33:07.256Z,16.70
2022-12-11T02:35:37.998Z,16.20
2022-12-11T02:38:08.887Z,13.40
2022-12-11T02:40:42.252Z,14.50
2022-12-11T02:43:11.496Z,16.90
2022-12-11T02:45:40.466Z,14.60
2022-12-11T02:48:09.878Z,16.30
2022-12-11T02:50:39.279Z,15.60
2022-12-11T02:53:15.857Z,17.10
2022-12-11T02:55:44.386Z,14.70
2022-12-11T02:58:12.106Z,14.00
2022-12-11T03:00:44.062Z,14.00
2022-12-11T03:03:12.442Z,14.60
2022-12-11T03:05:40.909Z,16.80
2022-12-11T03:08:08.868Z,18.00
2022-12-11T03:10:36.601Z,17.40
2022-12-11T03:13:04.849Z,15.10
2022-12-11T03:15:51.108Z,17.40
2022-12-11T03:18:23.685Z,15.90
2022-12-11T03:20:56.843Z,15.20
2022-12-11T03:23:33.518Z,13.90
2022-12-11T03:26:12.665Z,14.80
2022-12-11T03:28:40.366Z,14.00
2022-12-11T03:31:10.233Z,14.30
2022-12-11T03:33:40.239Z,13.70
2022-12-11T03:36:10.708Z,15.30
2022-12-11T03:38:44.385Z,15.60
2022-12-11T03:41:12.597Z,16.80
2022-12-11T03:43:41.055Z,15.40
2022-12-11T03:46:10.143Z,15.50
2022-12-11T03:48:40.631Z,17.50
2022-12-11T03:51:09.289Z,18.60
2022-12-11T03:53:37.597Z,16.60
2022-12-11T03:56:06.914Z,14.30
2022-12-11T03:58:35.630Z,15.60
2022-12-11T04:01:03.225Z,16.70
2022-12-11T04:03:30.918Z,17.30
2022-12-11T04:06:02.517Z,19.70
2022-12-11T04:08:30.406Z,14.40
2022-12-11T04:11:16.922Z,17.50
2022-12-11T04:13:44.771Z,17.90
2022-12-11T04:16:12.566Z,13.60
2022-12-11T04:18:59.291Z,17.50
2022-12-11T04:21:59.529Z,14.80
2022-12-11T04:24:27.347Z,18.20
2022-12-11T04:26:55.253Z,17.70
2022-12-11T04:29:23.095Z,18.80
2022-12-11T04:31:57.839Z,13.40
2022-12-11T04:34:25.561Z,17.80
2022-12-11T04:36:53.194Z,17.30
2022-12-11T04:39:20.885Z,16.80
2022-12-11T04:41:48.656Z,17.80
2022-12-11T04:44:16.902Z,19.30
2022-12-11T04:46:44.811Z,18.90
2022-12-11T04:49:12.618Z,17.00
2022-12-11T04:51:40.400Z,18.50
2022-12-11T04:54:08.171Z,20.60
2022-12-11T04:56:35.871Z,18.20
2022-12-11T04:59:03.583Z,18.50
2022-12-11T05:01:31.575Z,20.90
2022-12-11T05:04:00.034Z,19.90
2022-12-11T05:06:27.707Z,17.90
2022-12-11T05:08:55.534Z,18.80
2022-12-11T05:11:23.946Z,23.60
2022-12-11T05:13:51.845Z,20.90
2022-12-11T05:16:19.786Z,23.00
2022-12-11T05:18:47.588Z,24.00
2022-12-11T05:21:15.528Z,21.40
2022-12-11T05:23:43.319Z,20.10
2022-12-11T05:26:17.040Z,15.20
2022-12-11T05:28:49.240Z,17.80
2022-12-11T05:31:18.339Z,18.20
2022-12-11T05:33:46.610Z,20.60
2022-12-11T05:36:25.737Z,21.10
2022-12-11T05:38:53.710Z,21.40
2022-12-11T05:41:22.256Z,20.30
2022-12-11T05:43:50.454Z,21.90
2022-12-11T05:46:25.975Z,25.60
2022-12-11T05:48:55.416Z,25.80
2022-12-11T05:51:23.168Z,22.30
2022-12-11T05:53:51.980Z,28.10
2022-12-11T05:56:20.949Z,23.80
2022-12-11T05:58:48.959Z,23.30
2022-12-11T06:01:18.699Z,24.80
2022-12-11T06:03:46.611Z,22.60
2022-12-11T06:06:14.477Z,35.30
2022-12-11T06:08:42.215Z,26.20
2022-12-11T06:11:11.578Z,28.10
2022-12-11T06:13:39.559Z,26.00
2022-12-11T06:16:08.164Z,24.90
2022-12-11T06:18:37.141Z,26.50
2022-12-11T06:21:15.604Z,26.10
2022-12-11T06:23:50.549Z,26.20
2022-12-11T06:26:23.168Z,21.50
2022-12-11T06:28:50.849Z,28.80
2022-12-11T06:31:19.042Z,23.40
2022-12-11T06:33:47.086Z,26.50
2022-12-11T06:36:16.216Z,26.20
2022-12-11T06:38:44.531Z,24.10
2022-12-11T06:41:12.762Z,26.20
2022-12-11T06:43:41.226Z,29.00
2022-12-11T06:46:10.323Z,25.70
2022-12-11T06:48:42.518Z,30.70
2022-12-11T06:51:11.546Z,25.20
2022-12-11T06:53:39.933Z,23.80
2022-12-11T06:56:09.525Z,21.40
2022-12-11T06:58:37.559Z,21.90
2022-12-11T07:01:05.669Z,25.80
2022-12-11T07:03:33.668Z,24.00
2022-12-11T07:06:02.516Z,28.30
2022-12-11T07:08:31.937Z,21.70
2022-12-11T07:11:03.992Z,23.40
2022-12-11T07:13:31.799Z,21.10
2022-12-11T07:16:01.858Z,23.00
2022-12-11T07:18:30.393Z,20.80
2022-12-11T07:20:59.692Z,23.70
2022-12-11T07:23:28.456Z,21.20
2022-12-11T07:26:03.278Z,23.20
2022-12-11T07:28:41.709Z,21.30
2022-12-11T07:31:11.383Z,22.50
2022-12-11T07:33:39.333Z,21.10
2022-12-11T07:36:08.210Z,18.40
2022-12-11T07:38:36.774Z,20.40
2022-12-11T07:41:05.949Z,19.80
2022-12-11T07:43:35.342Z,20.80
2022-12-11T08:11:26.504Z,19.10
2022-12-11T08:13:59.257Z,24.30
2022-12-11T08:16:27.387Z,36.70
2022-12-11T08:18:55.517Z,24.50
2022-12-11T08:21:25.690Z,24.40
2022-12-11T08:23:53.834Z,18.10
2022-12-11T08:26:23.562Z,22.30
2022-12-11T08:28:51.898Z,21.00
2022-12-11T08:31:26.724Z,20.30
2022-12-11T08:33:55.186Z,21.20
2022-12-11T08:36:23.356Z,36.90
2022-12-11T08:38:52.144Z,22.30
2022-12-11T08:41:21.614Z,20.80
2022-12-11T08:43:54.922Z,18.20
2022-12-11T08:46:24.043Z,14.40
2022-12-11T08:48:51.883Z,20.30
2022-12-11T08:51:20.917Z,17.90
2022-12-11T08:53:48.898Z,18.60
2022-12-11T08:56:17.885Z,15.00
2022-12-11T08:58:47.395Z,12.90
2022-12-11T09:01:18.531Z,10.40
2022-12-11T09:03:46.490Z,15.20
2022-12-11T09:06:15.853Z,14.40
2022-12-11T09:08:50.400Z,19.40
2022-12-11T09:11:21.900Z,15.50
2022-12-11T09:13:50.727Z,12.90
2022-12-11T09:16:21.967Z,15.50
2022-12-11T09:18:51.095Z,15.90
2022-12-11T09:21:21.301Z,15.40
2022-12-11T09:23:52.487Z,15.10
2022-12-11T09:26:21.228Z,23.10
2022-12-11T09:28:51.635Z,14.40
2022-12-11T09:31:24.528Z,20.50
2022-12-11T09:33:54.731Z,35.90
2022-12-11T09:36:23.138Z,27.60
2022-12-11T09:38:51.230Z,30.00
2022-12-11T09:41:22.375Z,39.70
2022-12-11T09:44:12.327Z,29.70
2022-12-11T09:46:40.731Z,84.20
2022-12-11T09:49:24.782Z,44.20
2022-12-11T09:51:59.185Z,47.70
2022-12-11T09:54:27.035Z,46.30
2022-12-11T09:57:03.552Z,50.30
2022-12-11T09:59:39.203Z,39.50
2022-12-11T10:02:13.434Z,39.30
2022-12-11T10:04:50.236Z,40.20
2022-12-11T10:07:23.076Z,25.60
2022-12-11T10:10:13.813Z,23.20
2022-12-11T10:12:48.596Z,29.50
2022-12-11T10:15:36.128Z,25.70
2022-12-11T10:18:07.471Z,20.30
2022-12-11T10:20:40.319Z,21.10
2022-12-11T10:23:40.948Z,20.50
2022-12-11T10:26:19.480Z,21.30
2022-12-11T10:28:47.398Z,21.70
2022-12-11T10:31:32.642Z,20.10
2022-12-11T10:34:00.499Z,27.70
2022-12-11T10:36:28.203Z,22.20
2022-12-11T10:38:56.695Z,25.80
2022-12-11T10:41:31.923Z,22.10
2022-12-11T10:44:01.881Z,29.60
2022-12-11T10:46:30.003Z,41.80
2022-12-11T10:49:01.927Z,23.90
2022-12-11T10:51:33.030Z,24.90
2022-12-11T10:54:07.323Z,44.40
2022-12-11T10:56:39.154Z,25.90
2022-12-11T10:59:07.024Z,18.90
2022-12-11T11:01:35.868Z,23.80
2022-12-11T11:04:06.761Z,24.20
2022-12-11T11:06:34.548Z,27.40
2022-12-11T11:09:03.755Z,26.00
2022-12-11T11:11:34.257Z,33.50
2022-12-11T11:14:14.250Z,26.70
2022-12-11T11:16:43.658Z,24.50
2022-12-11T11:19:20.654Z,24.30
2022-12-11T11:21:53.694Z,27.60
2022-12-11T11:24:27.369Z,25.40
2022-12-11T11:29:53.366Z,42.20
2022-12-11T11:32:30.656Z,104.80
2022-12-11T11:39:47.108Z,48.50
2022-12-11T11:42:18.747Z,76.50
2022-12-11T11:44:54.511Z,82.70
2022-12-11T11:47:32.399Z,31.80
2022-12-11T11:50:08.941Z,33.40
2022-12-11T11:52:54.830Z,24.40
2022-12-11T11:55:30.281Z,34.10
2022-12-11T11:57:59.534Z,29.50
2022-12-11T12:00:33.290Z,34.00
2022-12-11T12:03:06.524Z,43.20
2022-12-11T12:05:44.334Z,28.70
2022-12-11T12:08:12.762Z,29.10
2022-12-11T12:10:41.784Z,26.80
2022-12-11T12:19:37.143Z,33.70
2022-12-11T12:22:18.026Z,23.00
2022-12-11T12:25:01.146Z,21.40
2022-12-11T12:27:52.539Z,19.00
2022-12-11T12:30:31.032Z,24.40
2022-12-11T12:33:02.089Z,27.70
2022-12-11T12:35:44.825Z,22.70
2022-12-11T12:38:19.890Z,44.10
2022-12-11T12:41:06.363Z,24.50
2022-12-11T12:43:44.384Z,50.20
2022-12-11T12:46:13.202Z,36.80
2022-12-11T12:48:41.185Z,32.60
2022-12-11T12:51:13.511Z,38.50
2022-12-11T12:53:51.374Z,34.30
2022-12-11T12:56:20.611Z,32.20
2022-12-11T12:58:48.358Z,27.70
2022-12-11T13:01:23.595Z,26.60
2022-12-11T13:04:47.474Z,26.70
2022-12-11T13:07:15.266Z,22.40
2022-12-11T13:09:43.089Z,20.60
2022-12-11T13:12:16.772Z,21.90
2022-12-11T13:14:45.289Z,22.00
2022-12-11T13:17:22.615Z,26.50
2022-12-11T13:20:09.539Z,18.20
2022-12-11T13:22:47.121Z,21.30
2022-12-11T13:25:23.519Z,26.30
2022-12-11T13:27:51.899Z,19.60
2022-12-11T13:30:19.823Z,16.90
2022-12-11T13:32:56.701Z,19.20
2022-12-11T13:35:24.853Z,19.50
2022-12-11T13:38:16.991Z,21.60
2022-12-11T13:40:46.782Z,18.30
2022-12-11T13:43:18.251Z,16.20
2022-12-11T13:45:51.171Z,15.50
2022-12-11T13:48:19.093Z,17.00
2022-12-11T13:50:47.050Z,16.50
2022-12-11T13:53:15.784Z,16.50
2022-12-11T13:55:44.059Z,19.50
2022-12-11T13:58:16.839Z,19.00
2022-12-11T14:00:53.179Z,15.60
2022-12-11T14:03:21.100Z,17.70
2022-12-11T14:05:51.257Z,18.10
2022-12-11T14:08:22.692Z,17.10
2022-12-11T14:10:52.394Z,17.90
2022-12-11T14:13:27.602Z,17.00
2022-12-11T14:15:57.433Z,18.90
2022-12-11T14:18:27.419Z,26.60
2022-12-11T14:21:02.711Z,20.80
2022-12-11T14:23:35.244Z,18.10
2022-12-11T14:26:04.771Z,28.90
2022-12-11T14:28:37.344Z,45.80
2022-12-11T14:31:05.897Z,26.50
2022-12-11T14:33:51.779Z,21.50
2022-12-11T14:36:22.560Z,27.10
2022-12-11T14:39:18.407Z,26.80
2022-12-11T14:41:49.252Z,23.50
2022-12-11T14:44:39.676Z,29.70
2022-12-11T14:47:20.722Z,26.10
2022-12-11T14:49:53.468Z,29.50
2022-12-11T14:52:26.484Z,18.50
2022-12-11T14:55:07.059Z,25.10
2022-12-11T14:57:35.953Z,22.30
2022-12-11T15:00:04.931Z,21.20
2022-12-11T15:02:34.179Z,55.50
2022-12-11T15:05:22.587Z,30.00
2022-12-11T15:08:01.049Z,28.00
2022-12-11T15:10:33.724Z,38.10
2022-12-11T15:13:02.150Z,38.60
2022-12-11T15:15:53.094Z,32.80
2022-12-11T15:18:38.678Z,25.70
2022-12-11T15:21:10.248Z,23.30
2022-12-11T15:23:51.662Z,28.20
2022-12-11T15:26:20.616Z,29.80
2022-12-11T15:29:02.975Z,33.90
2022-12-11T15:31:32.607Z,22.50
2022-12-11T15:34:01.110Z,21.60
2022-12-11T15:36:35.121Z,13.10
2022-12-11T15:39:05.790Z,25.80
2022-12-11T15:41:37.345Z,18.10
2022-12-11T15:44:07.020Z,26.10
2022-12-11T15:46:37.970Z,30.10
2022-12-11T15:49:11.290Z,23.20
2022-12-11T15:51:42.839Z,28.30
2022-12-11T15:54:12.015Z,26.50
2022-12-11T15:56:40.290Z,21.60
2022-12-11T15:59:08.702Z,13.40
2022-12-11T16:01:36.554Z,19.20
2022-12-11T16:04:06.381Z,16.80
2022-12-11T16:06:34.657Z,20.00
2022-12-11T16:09:04.151Z,22.50
2022-12-11T16:11:32.103Z,23.50
2022-12-11T16:14:04.456Z,22.70
2022-12-11T16:16:32.418Z,22.50
2022-12-11T16:19:01.925Z,21.70
2022-12-11T16:21:37.109Z,19.70
2022-12-11T16:24:05.065Z,12.00
2022-12-11T16:26:33.754Z,14.60
2022-12-11T16:29:02.217Z,22.40
2022-12-11T16:31:50.084Z,20.20
2022-12-11T16:34:18.039Z,23.50
2022-12-11T16:36:49.282Z,28.20
2022-12-11T16:39:17.106Z,23.80
2022-12-11T16:41:47.049Z,19.40
2022-12-11T16:44:19.663Z,20.40
2022-12-11T16:46:47.780Z,18.00
2022-12-11T16:49:16.915Z,17.30
2022-12-11T16:51:49.527Z,26.00
2022-12-11T16:54:19.096Z,52.50
2022-12-11T16:56:46.919Z,28.00
2022-12-11T16:59:16.659Z,35.60
2022-12-11T17:01:45.660Z,26.30
2022-12-11T17:04:13.583Z,20.50
2022-12-11T17:06:41.501Z,25.90
2022-12-11T17:09:09.439Z,35.40
2022-12-11T17:11:37.202Z,34.80
2022-12-11T17:14:05.009Z,39.80
2022-12-11T17:16:34.095Z,26.00
2022-12-11T17:19:07.621Z,19.90
2022-12-11T17:21:35.536Z,19.90
2022-12-11T17:24:13.264Z,32.90
2022-12-11T17:26:42.412Z,33.90
2022-12-11T17:29:12.019Z,24.80
2022-12-11T17:31:40.784Z,17.40
2022-12-11T17:34:10.973Z,24.90
2022-12-11T17:36:46.801Z,38.70
2022-12-11T17:39:14.630Z,18.40
2022-12-11T17:41:42.660Z,30.20
2022-12-11T17:44:10.510Z,20.60
2022-12-11T17:46:41.107Z,23.00
2022-12-11T17:49:09.658Z,20.80
2022-12-11T17:51:58.009Z,25.10
2022-12-11T17:54:26.920Z,25.10
2022-12-11T17:56:54.628Z,21.90
2022-12-11T17:59:22.397Z,21.10
2022-12-11T18:01:50.431Z,20.50
2022-12-11T18:04:18.372Z,24.30
2022-12-11T18:06:46.342Z,21.00
2022-12-11T18:09:20.708Z,24.10
2022-12-11T18:11:53.433Z,24.20
2022-12-11T18:14:21.292Z,26.60
2022-12-11T18:16:49.498Z,28.20
2022-12-11T18:19:17.583Z,22.90
2022-12-11T18:21:45.856Z,23.70
2022-12-11T18:24:14.194Z,18.70
2022-12-11T18:26:45.236Z,21.00
2022-12-11T18:29:13.222Z,53.90
2022-12-11T18:31:42.802Z,22.90
2022-12-11T18:34:11.102Z,51.90
2022-12-11T18:36:40.772Z,47.90
2022-12-11T18:39:18.655Z,49.60
2022-12-11T18:41:58.276Z,36.40
2022-12-11T18:44:30.129Z,25.70
2022-12-11T18:46:58.179Z,32.50
2022-12-11T18:49:26.810Z,44.20
2022-12-11T18:51:54.822Z,44.50
2022-12-11T18:54:42.641Z,32.90
2022-12-11T18:57:10.715Z,33.40
2022-12-11T18:59:39.811Z,34.70
2022-12-11T19:02:08.800Z,27.00
2022-12-11T19:04:38.193Z,37.40
2022-12-11T19:07:06.700Z,36.90
2022-12-11T19:09:38.437Z,38.80
2022-12-11T19:12:06.915Z,34.60
2022-12-11T19:14:34.707Z,32.90
2022-12-11T19:17:03.570Z,68.00
2022-12-11T19:19:51.707Z,46.20
2022-12-11T19:22:21.388Z,34.50
2022-12-11T19:25:30.730Z,25.70
2022-12-11T19:27:58.822Z,40.40
2022-12-11T19:30:26.796Z,21.80
2022-12-11T19:32:55.028Z,18.50
2022-12-11T19:35:22.671Z,19.30
2022-12-11T19:37:51.205Z,13.90
2022-12-11T19:40:20.958Z,18.70
2022-12-11T19:42:49.075Z,21.90
2022-12-11T19:45:17.207Z,19.30
2022-12-11T19:47:46.486Z,15.30
2022-12-11T19:50:22.386Z,17.80
2022-12-11T19:52:50.320Z,11.80
2022-12-11T19:55:19.702Z,12.80
2022-12-11T19:57:48.714Z,9.60
2022-12-11T20:00:16.849Z,17.70
2022-12-11T20:02:44.785Z,34.90
2022-12-11T20:05:14.260Z,42.40
2022-12-11T20:07:45.069Z,45.60
2022-12-11T20:10:13.355Z,38.70
2022-12-11T20:12:41.320Z,76.40
2022-12-11T20:15:09.288Z,66.40
2022-12-11T20:17:44.052Z,59.00
2022-12-11T20:20:12.186Z,64.10
2022-12-11T20:22:40.158Z,37.80
2022-12-11T20:25:08.136Z,20.30
2022-12-11T20:27:37.323Z,26.60
2022-12-11T20:30:08.749Z,22.30
2022-12-11T20:32:37.046Z,22.50
2022-12-11T20:35:05.942Z,35.80
2022-12-11T20:37:56.833Z,22.40
2022-12-11T20:40:26.482Z,23.40
2022-12-11T20:42:56.919Z,21.00
2022-12-11T20:45:25.774Z,28.30
2022-12-11T20:47:54.468Z,25.90
2022-12-11T20:50:30.241Z,36.20
2022-12-11T20:52:58.792Z,18.30
2022-12-11T20:55:26.738Z,19.30
2022-12-11T20:57:55.786Z,26.30
2022-12-11T21:00:24.283Z,20.40
2022-12-11T21:02:52.762Z,17.80
2022-12-11T21:05:20.626Z,13.80
2022-12-11T21:07:48.490Z,17.60
2022-12-11T21:10:16.479Z,25.00
2022-12-11T21:12:44.403Z,19.40
2022-12-11T21:15:12.488Z,19.90
2022-12-11T21:17:41.166Z,22.50
2022-12-11T21:20:09.496Z,60.00
2022-12-11T21:22:40.196Z,31.50
2022-12-11T21:25:08.075Z,21.80
2022-12-11T21:27:36.134Z,46.70
2022-12-11T21:30:05.360Z,34.90
2022-12-11T21:32:39.835Z,17.40
2022-12-11T21:35:08.372Z,19.40
2022-12-11T21:37:36.284Z,21.20
2022-12-11T21:40:04.313Z,17.20
2022-12-11T21:42:32.659Z,17.00
2022-12-11T21:47:48.391Z,14.30
2022-12-11T21:50:16.737Z,17.10
2022-12-11T21:52:44.530Z,19.00
2022-12-11T21:55:16.353Z,13.80
2022-12-11T21:57:44.134Z,19.90
2022-12-11T22:00:12.817Z,24.50
2022-12-11T22:02:42.410Z,18.50
2022-12-11T22:05:10.755Z,17.60
2022-12-11T22:07:38.906Z,19.80
2022-12-11T22:10:06.864Z,25.40
2022-12-11T22:12:34.626Z,22.20
2022-12-11T22:15:02.404Z,23.60
2022-12-11T22:17:31.799Z,23.90
2022-12-11T22:20:01.981Z,24.50
2022-12-11T22:22:29.854Z,22.90
2022-12-11T22:24:57.679Z,20.50
2022-12-11T22:27:25.684Z,20.30
2022-12-11T22:29:55.218Z,25.70
2022-12-11T22:32:23.084Z,30.10
2022-12-11T22:34:58.803Z,30.20
2022-12-11T22:37:26.916Z,31.90
2022-12-11T22:39:54.696Z,31.60
2022-12-11T22:42:22.483Z,24.90
2022-12-11T22:44:50.366Z,19.10
2022-12-11T22:47:18.094Z,11.00
2022-12-11T22:49:46.034Z,18.40
2022-12-11T22:52:13.970Z,18.10
2022-12-11T22:54:42.112Z,18.20
2022-12-11T22:57:09.842Z,16.90
2022-12-11T22:59:58.734Z,17.20
2022-12-11T23:02:26.511Z,13.90
2022-12-11T23:04:54.362Z,12.50
2022-12-11T23:07:22.269Z,15.30
2022-12-11T23:09:50.199Z,12.90
2022-12-11T23:12:24.565Z,14.30
2022-12-11T23:15:00.791Z,13.70
2022-12-11T23:17:36.054Z,14.70
2022-12-11T23:20:08.454Z,15.60
2022-12-11T23:22:36.313Z,11.80
2022-12-11T23:25:04.081Z,13.80
2022-12-11T23:27:31.807Z,12.60
2022-12-11T23:29:59.697Z,15.40
2022-12-11T23:32:28.650Z,16.10
2022-12-11T23:35:00.684Z,15.00
2022-12-11T23:37:36.623Z,14.00
2022-12-11T23:40:05.476Z,18.00
2022-12-11T23:42:35.046Z,16.00
2022-12-11T23:45:03.167Z,15.50
2022-12-11T23:47:31.113Z,14.10
2022-12-11T23:49:59.053Z,14.70
2022-12-11T23:52:27.180Z,13.30
2022-12-11T23:54:55.751Z,17.20
2022-12-11T23:57:24.061Z,14.20
2022-12-11T23:59:51.922Z,16.20
